Burtonsville, New York
Current Conditions -  °F | °C
As of 12:55 PM on Saturday 22 Nov 2014 (Local Time) from KNY0 Reporting Station
Overcast Overcast  
Wind Chill: 31°   Ceiling: 5000
Heat Index: 31°   Visibility: 10mi
Dew Point: 12°   Wind: 3mph
Humidity: 46%   Direction: 140°SE
Pressure: 30.13"   Gusts: NA
Location:  42.7904°N, 74.3145°W
Report Text: KNY0 221755Z AUTO 14003KT 10SM OVC050 M01/M11 A3013 RMK AO2 T10071112 11007 21081
Loading
Personal Weather Stations






























Interactive Weather Map New forecast layout! Learn more

10-Day Weather Forecast

Advertisements
Track Severe Weather on mobile